createdAt,value
2019-02-17T00:01:50.091Z,1.10
2019-02-17T00:04:18.523Z,1.20
2019-02-17T00:06:46.946Z,1.20
2019-02-17T00:09:17.066Z,1.10
2019-02-17T00:11:45.525Z,1.10
2019-02-17T00:14:13.931Z,1.10
2019-02-17T00:16:42.338Z,1.10
2019-02-17T00:19:10.773Z,1.20
2019-02-17T00:21:42.838Z,1.30
2019-02-17T00:24:11.277Z,1.40
2019-02-17T00:26:39.710Z,1.40
2019-02-17T00:29:08.143Z,1.30
2019-02-17T00:31:36.558Z,1.30
2019-02-17T00:34:04.982Z,1.20
2019-02-17T00:36:33.398Z,1.20
2019-02-17T00:39:01.817Z,1.10
2019-02-17T00:41:30.258Z,1.10
2019-02-17T00:43:58.748Z,0.90
2019-02-17T00:46:27.154Z,0.90
2019-02-17T00:48:55.606Z,0.80
2019-02-17T00:51:24.014Z,0.70
2019-02-17T00:54:00.466Z,0.70
2019-02-17T00:56:28.899Z,0.50
2019-02-17T00:58:57.307Z,0.40
2019-02-17T01:01:25.729Z,0.20
2019-02-17T01:03:54.170Z,0.10
2019-02-17T01:06:22.584Z,0.00
2019-02-17T01:08:53.947Z,-0.10
2019-02-17T01:11:22.372Z,-0.10
2019-02-17T01:13:50.809Z,-0.20
2019-02-17T01:16:19.250Z,-0.10
2019-02-17T01:18:47.681Z,-0.20
2019-02-17T01:21:16.126Z,-0.20
2019-02-17T01:23:48.742Z,-0.10
2019-02-17T01:26:17.174Z,-0.20
2019-02-17T01:28:45.609Z,-0.30
2019-02-17T01:31:14.029Z,-0.40
2019-02-17T01:33:42.475Z,-0.40
2019-02-17T01:36:10.915Z,-0.40
2019-02-17T01:38:42.899Z,-0.50
2019-02-17T01:41:11.590Z,-0.60
2019-02-17T01:43:40.043Z,-0.60
2019-02-17T01:46:08.453Z,-0.70
2019-02-17T01:48:36.878Z,-0.70
2019-02-17T01:51:06.094Z,-0.80
2019-02-17T01:53:37.886Z,-0.70
2019-02-17T01:56:06.339Z,-0.80
2019-02-17T01:58:34.789Z,-0.80
2019-02-17T02:01:03.415Z,-0.70
2019-02-17T02:03:31.913Z,-0.70
2019-02-17T02:06:00.364Z,-0.80
2019-02-17T02:08:31.821Z,-0.90
2019-02-17T02:11:00.277Z,-0.90
2019-02-17T02:13:28.694Z,-1.00
2019-02-17T02:15:57.102Z,-1.00
2019-02-17T02:18:25.557Z,-1.00
2019-02-17T02:20:53.992Z,-1.10
2019-02-17T02:23:22.406Z,-1.00
2019-02-17T02:25:50.842Z,-1.10
2019-02-17T02:28:19.359Z,-1.10
2019-02-17T02:30:47.810Z,-1.10
2019-02-17T02:33:16.254Z,-1.10
2019-02-17T02:35:44.712Z,-1.10
2019-02-17T02:38:13.613Z,-1.10
2019-02-17T02:40:46.382Z,-1.10
2019-02-17T02:43:14.841Z,-1.10
2019-02-17T02:45:43.346Z,-1.10
2019-02-17T02:48:11.799Z,-1.20
2019-02-17T02:50:40.246Z,-1.20
2019-02-17T02:53:08.667Z,-1.10
2019-02-17T02:55:40.547Z,-1.00
2019-02-17T02:58:09.012Z,-0.90
2019-02-17T03:00:37.450Z,-0.90
2019-02-17T03:03:05.886Z,-1.00
2019-02-17T03:05:35.951Z,-1.10
2019-02-17T03:08:04.534Z,-1.10
2019-02-17T03:10:35.902Z,-1.20
2019-02-17T03:13:04.314Z,-1.20
2019-02-17T03:15:32.758Z,-1.20
2019-02-17T03:18:01.178Z,-1.20
2019-02-17T03:20:29.612Z,-1.30
2019-02-17T03:22:58.037Z,-1.40
2019-02-17T03:25:30.070Z,-1.40
2019-02-17T03:27:58.482Z,-1.50
2019-02-17T03:30:26.917Z,-1.60
2019-02-17T03:32:55.358Z,-1.60
2019-02-17T03:35:23.786Z,-1.60
2019-02-17T03:37:52.221Z,-1.60
2019-02-17T03:40:20.654Z,-1.60
2019-02-17T03:42:49.113Z,-1.60
2019-02-17T03:45:17.527Z,-1.70
2019-02-17T03:47:45.974Z,-1.70
2019-02-17T03:50:14.448Z,-1.80
2019-02-17T03:52:42.889Z,-1.80
2019-02-17T03:55:14.974Z,-1.80
2019-02-17T03:57:43.394Z,-1.80
2019-02-17T04:00:17.128Z,-1.70
2019-02-17T04:02:41.997Z,-1.70
2019-02-17T04:05:10.407Z,-1.80
2019-02-17T04:07:38.843Z,-1.70
2019-02-17T04:10:07.855Z,-1.80
2019-02-17T04:12:36.273Z,-1.80
2019-02-17T04:15:05.655Z,-1.80
2019-02-17T04:17:34.058Z,-1.90
2019-02-17T04:20:02.517Z,-1.90
2019-02-17T04:22:30.942Z,-1.80
2019-02-17T04:24:59.402Z,-1.80
2019-02-17T04:27:27.819Z,-1.70
2019-02-17T04:29:56.255Z,-1.80
2019-02-17T04:32:24.675Z,-1.80
2019-02-17T04:34:53.109Z,-1.90
2019-02-17T04:37:21.559Z,-1.90
2019-02-17T04:39:49.957Z,-1.90
2019-02-17T04:42:18.410Z,-2.00
2019-02-17T04:44:46.823Z,-2.00
2019-02-17T04:47:15.287Z,-2.00
2019-02-17T04:49:43.766Z,-2.00
2019-02-17T04:52:12.201Z,-2.10
2019-02-17T04:54:40.610Z,-2.00
2019-02-17T04:57:09.246Z,-2.00
2019-02-17T04:59:37.736Z,-1.90
2019-02-17T05:02:06.216Z,-1.80
2019-02-17T05:04:34.668Z,-1.80
2019-02-17T05:07:03.097Z,-1.80
2019-02-17T05:09:31.532Z,-1.80
2019-02-17T05:11:59.947Z,-1.70
2019-02-17T05:14:28.390Z,-1.60
2019-02-17T05:16:56.812Z,-1.50
2019-02-17T05:19:25.318Z,-1.60
2019-02-17T05:21:53.767Z,-1.70
2019-02-17T05:24:22.182Z,-1.70
2019-02-17T05:26:53.668Z,-1.70
2019-02-17T05:29:25.591Z,-1.80
2019-02-17T05:31:54.028Z,-1.90
2019-02-17T05:34:22.460Z,-1.90
2019-02-17T05:36:50.916Z,-2.00
2019-02-17T05:39:19.327Z,-1.90
2019-02-17T05:41:50.604Z,-1.80
2019-02-17T05:44:19.176Z,-1.80
2019-02-17T05:46:47.610Z,-1.80
2019-02-17T05:49:16.263Z,-1.90
2019-02-17T05:51:44.735Z,-2.00
2019-02-17T05:54:13.300Z,-2.00
2019-02-17T05:56:41.718Z,-2.00
2019-02-17T05:59:13.754Z,-2.10
2019-02-17T06:01:42.218Z,-2.10
2019-02-17T06:04:10.673Z,-2.10
2019-02-17T06:06:39.099Z,-2.20
2019-02-17T06:09:07.547Z,-2.10
2019-02-17T06:11:36.014Z,-2.10
2019-02-17T06:14:04.439Z,-2.00
2019-02-17T06:16:32.869Z,-2.10
2019-02-17T06:19:01.366Z,-2.20
2019-02-17T06:21:29.825Z,-2.00
2019-02-17T06:23:58.262Z,-2.10
2019-02-17T06:26:26.695Z,-2.10
2019-02-17T06:28:58.698Z,-2.10
2019-02-17T06:31:27.154Z,-2.20
2019-02-17T06:33:55.762Z,-2.20
2019-02-17T06:36:24.172Z,-2.10
2019-02-17T06:38:52.598Z,-2.00
2019-02-17T06:41:21.116Z,-2.00
2019-02-17T06:43:49.649Z,-2.00
2019-02-17T06:46:19.713Z,-2.00
2019-02-17T06:48:48.139Z,-1.90
2019-02-17T06:51:16.555Z,-1.90
2019-02-17T06:53:45.006Z,-1.90
2019-02-17T06:56:20.750Z,-1.90
2019-02-17T06:58:52.696Z,-1.80
2019-02-17T07:01:24.570Z,-1.70
2019-02-17T07:03:51.335Z,-1.70
2019-02-17T07:06:23.927Z,-1.60
2019-02-17T07:08:52.357Z,-1.50
2019-02-17T07:11:20.832Z,-1.50
2019-02-17T07:13:49.297Z,-1.40
2019-02-17T07:16:19.382Z,-1.30
2019-02-17T07:18:47.831Z,-1.30
2019-02-17T07:21:16.237Z,-1.30
2019-02-17T07:23:44.685Z,-1.10
2019-02-17T07:26:13.099Z,-1.00
2019-02-17T07:28:41.523Z,-0.90
2019-02-17T07:31:13.877Z,-0.80
2019-02-17T07:33:42.343Z,-0.60
2019-02-17T07:36:10.785Z,-0.50
2019-02-17T07:38:39.197Z,-0.40
2019-02-17T07:41:07.646Z,-0.30
2019-02-17T07:43:36.050Z,-0.30
2019-02-17T07:46:04.490Z,-0.20
2019-02-17T07:48:32.910Z,-0.10
2019-02-17T07:51:01.372Z,0.00
2019-02-17T07:53:29.871Z,0.10
2019-02-17T07:55:58.309Z,0.20
2019-02-17T07:58:26.955Z,0.40
2019-02-17T08:00:55.425Z,0.50
2019-02-17T08:03:23.886Z,0.60
2019-02-17T08:05:52.306Z,0.70
2019-02-17T08:08:20.759Z,0.80
2019-02-17T08:10:49.167Z,0.80
2019-02-17T08:13:17.607Z,1.00
2019-02-17T08:15:49.694Z,1.10
2019-02-17T08:18:18.144Z,1.30
2019-02-17T08:20:46.603Z,1.30
2019-02-17T08:23:15.026Z,1.40
2019-02-17T08:25:43.454Z,1.50
2019-02-17T08:28:11.892Z,1.60
2019-02-17T08:30:40.293Z,1.70
2019-02-17T08:33:08.752Z,1.80
2019-02-17T08:35:37.194Z,1.90
2019-02-17T08:38:05.668Z,2.00
2019-02-17T08:40:34.435Z,2.20
2019-02-17T08:43:02.855Z,2.40
2019-02-17T08:45:35.887Z,2.50
2019-02-17T08:48:04.359Z,2.70
2019-02-17T08:50:32.746Z,2.80
2019-02-17T08:53:01.225Z,2.90
2019-02-17T08:55:29.899Z,3.00
2019-02-17T08:57:58.321Z,3.10
2019-02-17T09:00:33.929Z,3.20
2019-02-17T09:03:02.382Z,3.30
2019-02-17T09:05:30.795Z,3.30
2019-02-17T09:07:59.213Z,3.50
2019-02-17T09:10:27.639Z,3.60
2019-02-17T09:12:56.050Z,3.80
2019-02-17T09:15:28.206Z,3.90
2019-02-17T09:17:56.603Z,4.10
2019-02-17T09:20:25.055Z,4.20
2019-02-17T09:22:53.463Z,4.40
2019-02-17T09:25:21.908Z,4.50
2019-02-17T09:27:50.322Z,4.60
2019-02-17T09:30:18.756Z,4.80
2019-02-17T09:32:47.214Z,4.90
2019-02-17T09:35:15.642Z,5.00
2019-02-17T09:37:44.099Z,5.20
2019-02-17T09:40:13.238Z,5.30
2019-02-17T09:42:41.655Z,5.40
2019-02-17T09:45:16.130Z,5.50
2019-02-17T09:47:44.546Z,5.60
2019-02-17T09:50:14.115Z,5.70
2019-02-17T09:52:42.636Z,5.80
2019-02-17T09:55:11.515Z,6.00
2019-02-17T09:57:40.318Z,6.00
2019-02-17T10:00:11.669Z,6.20
2019-02-17T10:02:40.118Z,6.30
2019-02-17T10:05:10.599Z,6.40
2019-02-17T10:07:39.047Z,6.50
2019-02-17T10:10:10.545Z,6.60
2019-02-17T10:12:38.987Z,6.70
2019-02-17T10:15:15.184Z,6.70
2019-02-17T10:17:43.667Z,6.80
2019-02-17T10:20:16.098Z,6.90
2019-02-17T10:22:44.500Z,7.00
2019-02-17T10:25:12.995Z,7.10
2019-02-17T10:27:41.438Z,7.20
2019-02-17T10:30:15.250Z,7.30
2019-02-17T10:32:43.707Z,7.40
2019-02-17T10:35:12.575Z,7.50
2019-02-17T10:37:41.129Z,7.60
2019-02-17T10:40:14.971Z,7.60
2019-02-17T10:42:43.395Z,7.70
2019-02-17T10:45:12.569Z,7.80
2019-02-17T10:47:41.019Z,7.80
2019-02-17T10:50:11.990Z,7.90
2019-02-17T10:52:40.410Z,7.90
2019-02-17T10:55:11.238Z,8.00
2019-02-17T10:57:39.669Z,8.10
2019-02-17T11:00:12.071Z,8.20
2019-02-17T11:02:47.214Z,8.30
2019-02-17T11:05:11.526Z,8.30
2019-02-17T11:07:40.017Z,8.40
2019-02-17T11:10:10.892Z,8.50
2019-02-17T11:12:39.400Z,8.60
2019-02-17T11:15:10.893Z,8.70
2019-02-17T11:17:42.394Z,8.70
2019-02-17T11:20:11.080Z,8.80
2019-02-17T11:22:39.538Z,9.00
2019-02-17T11:25:08.396Z,9.10
2019-02-17T11:27:36.807Z,9.20
2019-02-17T11:30:11.014Z,9.20
2019-02-17T11:32:39.492Z,9.30
2019-02-17T11:35:08.443Z,9.40
2019-02-17T11:37:36.886Z,9.50
2019-02-17T11:40:08.537Z,9.60
2019-02-17T11:42:36.954Z,9.70
2019-02-17T11:45:12.013Z,9.80
2019-02-17T11:47:40.483Z,9.90
2019-02-17T11:50:09.615Z,10.10
2019-02-17T11:52:38.046Z,10.20
2019-02-17T11:55:09.427Z,10.30
2019-02-17T11:57:38.007Z,10.40
2019-02-17T12:00:09.723Z,10.50
2019-02-17T12:02:38.158Z,10.70
2019-02-17T12:05:12.524Z,10.80
2019-02-17T12:07:41.002Z,10.90
2019-02-17T12:10:11.075Z,10.90
2019-02-17T12:12:39.881Z,11.10
2019-02-17T12:15:11.059Z,11.20
2019-02-17T12:17:41.295Z,11.20
2019-02-17T12:20:23.458Z,11.30
2019-02-17T12:22:56.363Z,11.40
2019-02-17T12:25:26.427Z,11.50
2019-02-17T12:27:56.479Z,11.60
2019-02-17T12:30:24.926Z,11.70
2019-02-17T12:32:53.378Z,11.90
2019-02-17T12:35:21.830Z,12.00
2019-02-17T12:37:50.266Z,12.10
2019-02-17T12:40:18.692Z,12.20
2019-02-17T12:42:47.234Z,12.20
2019-02-17T12:45:18.256Z,12.30
2019-02-17T12:47:45.830Z,12.40
2019-02-17T12:50:18.726Z,12.40
2019-02-17T12:52:47.966Z,12.60
2019-02-17T12:55:16.622Z,12.60
2019-02-17T12:57:45.094Z,12.70
2019-02-17T13:00:16.509Z,12.80
2019-02-17T13:02:44.939Z,12.90
2019-02-17T13:05:18.603Z,12.90
2019-02-17T13:07:47.096Z,13.00
2019-02-17T13:10:15.648Z,13.00
2019-02-17T13:12:44.066Z,13.00
2019-02-17T13:15:13.952Z,13.00
2019-02-17T13:17:42.358Z,13.10
2019-02-17T13:20:19.319Z,13.20
2019-02-17T13:22:47.756Z,13.20
2019-02-17T13:25:17.698Z,13.30
2019-02-17T13:27:46.138Z,13.30
2019-02-17T13:30:23.275Z,13.30
2019-02-17T13:32:51.879Z,13.40
2019-02-17T13:35:24.638Z,13.40
2019-02-17T13:37:53.110Z,13.40
2019-02-17T13:40:21.535Z,13.50
2019-02-17T13:42:49.983Z,13.60
2019-02-17T13:45:18.871Z,13.60
2019-02-17T13:47:47.334Z,13.70
2019-02-17T13:50:16.894Z,13.70
2019-02-17T13:52:45.410Z,13.80
2019-02-17T13:55:13.830Z,13.80
2019-02-17T13:57:42.262Z,13.90
2019-02-17T14:00:13.804Z,13.90
2019-02-17T14:02:42.330Z,14.00
2019-02-17T14:05:14.204Z,14.00
2019-02-17T14:07:42.605Z,14.10
2019-02-17T14:10:12.611Z,14.10
2019-02-17T14:12:41.027Z,14.20
2019-02-17T14:15:12.461Z,14.20
2019-02-17T14:17:40.882Z,14.30
2019-02-17T14:20:10.927Z,14.30
2019-02-17T14:22:39.361Z,14.40
2019-02-17T14:25:11.103Z,14.40
2019-02-17T14:27:39.484Z,14.50
2019-02-17T14:30:18.378Z,14.50
2019-02-17T14:32:46.854Z,14.60
2019-02-17T14:35:15.263Z,14.60
2019-02-17T14:37:43.716Z,14.60
2019-02-17T14:40:13.572Z,14.60
2019-02-17T14:42:42.200Z,14.60
2019-02-17T14:45:14.935Z,14.60
2019-02-17T14:47:43.349Z,14.70
2019-02-17T14:50:12.321Z,14.60
2019-02-17T14:52:40.730Z,14.60
2019-02-17T14:55:10.982Z,14.60
2019-02-17T14:57:39.436Z,14.60
2019-02-17T15:00:13.094Z,14.60
2019-02-17T15:02:41.550Z,14.50
2019-02-17T15:05:10.721Z,14.50
2019-02-17T15:07:42.214Z,14.50
2019-02-17T15:10:12.195Z,14.50
2019-02-17T15:12:40.649Z,14.40
2019-02-17T15:15:13.770Z,14.30
2019-02-17T15:17:42.207Z,14.10
2019-02-17T15:20:15.323Z,14.10
2019-02-17T15:22:43.743Z,14.00
2019-02-17T15:25:12.587Z,13.90
2019-02-17T15:27:41.072Z,13.90
2019-02-17T15:30:14.468Z,13.80
2019-02-17T15:32:42.920Z,13.70
2019-02-17T15:35:11.702Z,13.60
2019-02-17T15:37:44.139Z,13.60
2019-02-17T15:40:14.383Z,13.50
2019-02-17T15:42:43.409Z,13.40
2019-02-17T15:45:15.886Z,13.30
2019-02-17T15:47:44.414Z,13.30
2019-02-17T15:50:14.167Z,13.20
2019-02-17T15:52:42.604Z,13.00
2019-02-17T15:55:12.739Z,12.90
2019-02-17T15:57:41.329Z,12.90
2019-02-17T16:00:12.914Z,12.70
2019-02-17T16:02:41.357Z,12.60
2019-02-17T16:05:10.415Z,12.50
2019-02-17T16:07:41.975Z,12.40
2019-02-17T16:10:12.807Z,12.20
2019-02-17T16:12:41.328Z,12.10
2019-02-17T16:15:15.896Z,11.90
2019-02-17T16:17:44.378Z,11.70
2019-02-17T16:20:14.562Z,11.60
2019-02-17T16:22:47.313Z,11.50
2019-02-17T16:25:17.291Z,11.30
2019-02-17T16:27:45.697Z,11.20
2019-02-17T16:30:16.372Z,11.10
2019-02-17T16:32:44.786Z,11.00
2019-02-17T16:35:13.273Z,10.80
2019-02-17T16:37:46.368Z,10.60
2019-02-17T16:40:16.283Z,10.60
2019-02-17T16:42:44.782Z,10.50
2019-02-17T16:45:14.651Z,10.40
2019-02-17T16:47:43.820Z,10.20
2019-02-17T16:50:21.106Z,10.20
2019-02-17T16:52:54.367Z,10.00
2019-02-17T16:55:22.766Z,10.10
2019-02-17T16:57:54.177Z,9.90
2019-02-17T17:00:23.779Z,9.70
2019-02-17T17:02:53.677Z,9.60
2019-02-17T17:05:23.763Z,9.40
2019-02-17T17:07:52.343Z,9.40
2019-02-17T17:10:20.987Z,9.20
2019-02-17T17:12:49.499Z,9.10
2019-02-17T17:15:17.919Z,9.10
2019-02-17T17:17:46.376Z,8.90
2019-02-17T17:20:17.443Z,8.80
2019-02-17T17:22:46.054Z,8.70
2019-02-17T17:25:15.209Z,8.60
2019-02-17T17:27:43.670Z,8.60
2019-02-17T17:30:14.906Z,8.40
2019-02-17T17:32:43.338Z,8.40
2019-02-17T17:35:11.834Z,8.30
2019-02-17T17:37:40.641Z,8.40
2019-02-17T17:40:18.262Z,8.30
2019-02-17T17:42:46.988Z,8.20
2019-02-17T17:45:40.404Z,7.80
2019-02-17T17:48:08.871Z,7.60
2019-02-17T17:50:37.340Z,7.30
2019-02-17T17:53:05.754Z,7.10
2019-02-17T17:55:34.218Z,6.90
2019-02-17T17:58:02.667Z,6.80
2019-02-17T18:00:32.719Z,6.70
2019-02-17T18:03:01.169Z,6.50
2019-02-17T18:05:29.654Z,6.40
2019-02-17T18:07:58.061Z,6.50
2019-02-17T18:10:29.431Z,6.50
2019-02-17T18:12:57.896Z,6.30
2019-02-17T18:15:26.341Z,6.20
2019-02-17T18:17:55.161Z,6.10
2019-02-17T18:20:24.111Z,6.10
2019-02-17T18:22:52.610Z,6.30
2019-02-17T18:25:21.074Z,6.30
2019-02-17T18:27:50.028Z,6.10
2019-02-17T18:30:19.654Z,6.00
2019-02-17T18:32:48.084Z,6.00
2019-02-17T18:35:20.109Z,6.00
2019-02-17T18:37:47.265Z,5.90
2019-02-17T18:40:16.920Z,5.90
2019-02-17T18:42:45.402Z,5.90
2019-02-17T18:45:16.126Z,5.90
2019-02-17T18:47:44.574Z,5.90
2019-02-17T18:50:16.876Z,5.80
2019-02-17T18:52:45.309Z,5.60
2019-02-17T18:55:14.568Z,5.50
2019-02-17T18:57:50.181Z,5.40
2019-02-17T19:00:21.400Z,5.30
2019-02-17T19:02:49.860Z,5.30
2019-02-17T19:05:20.161Z,5.20
2019-02-17T19:07:48.438Z,5.00
2019-02-17T19:10:20.785Z,4.90
2019-02-17T19:12:49.349Z,4.80
2019-02-17T19:15:20.090Z,4.80
2019-02-17T19:17:48.563Z,4.80
2019-02-17T19:20:20.095Z,4.70
2019-02-17T19:22:48.510Z,4.70
2019-02-17T19:25:17.319Z,4.60
2019-02-17T19:27:45.837Z,4.60
2019-02-17T19:30:15.606Z,4.60
2019-02-17T19:32:44.488Z,4.50
2019-02-17T19:35:16.518Z,4.50
2019-02-17T19:37:44.951Z,4.40
2019-02-17T19:40:14.662Z,4.50
2019-02-17T19:42:43.160Z,4.40
2019-02-17T19:45:13.646Z,4.40
2019-02-17T19:47:42.406Z,4.50
2019-02-17T19:50:12.862Z,4.60
2019-02-17T19:52:41.333Z,4.80
2019-02-17T19:55:12.190Z,4.70
2019-02-17T19:57:40.622Z,4.70
2019-02-17T20:00:14.846Z,4.80
2019-02-17T20:02:50.863Z,4.80
2019-02-17T20:05:20.943Z,4.60
2019-02-17T20:07:49.495Z,4.50
2019-02-17T20:10:17.982Z,4.50
2019-02-17T20:12:46.410Z,4.40
2019-02-17T20:15:14.844Z,4.30
2019-02-17T20:17:43.263Z,4.30
2019-02-17T20:20:11.667Z,4.30
2019-02-17T20:22:40.199Z,4.30
2019-02-17T20:25:09.102Z,4.20
2019-02-17T20:27:37.546Z,4.10
2019-02-17T20:30:09.112Z,3.90
2019-02-17T20:32:37.570Z,3.90
2019-02-17T20:35:08.317Z,4.00
2019-02-17T20:37:36.767Z,4.00
2019-02-17T20:40:08.259Z,3.90
2019-02-17T20:42:36.679Z,3.90
2019-02-17T20:45:07.657Z,3.80
2019-02-17T20:47:36.094Z,3.70
2019-02-17T20:50:07.264Z,3.70
2019-02-17T20:52:35.778Z,3.70
2019-02-17T20:55:09.911Z,3.70
2019-02-17T20:57:41.700Z,3.70
2019-02-17T21:00:19.814Z,3.90
2019-02-17T21:02:48.247Z,4.00
2019-02-17T21:05:16.887Z,4.00
2019-02-17T21:07:45.350Z,4.00
2019-02-17T21:10:15.066Z,4.00
2019-02-17T21:12:47.102Z,4.00
2019-02-17T21:15:18.327Z,3.90
2019-02-17T21:17:46.747Z,3.90
2019-02-17T21:20:16.613Z,3.90
2019-02-17T21:22:45.410Z,3.80
2019-02-17T21:25:14.815Z,3.60
2019-02-17T21:27:43.227Z,3.50
2019-02-17T21:30:16.806Z,3.40
2019-02-17T21:32:45.813Z,3.50
2019-02-17T21:35:16.642Z,3.40
2019-02-17T21:37:45.379Z,3.40
2019-02-17T21:40:14.362Z,3.30
2019-02-17T21:42:46.631Z,3.40
2019-02-17T21:45:16.240Z,3.40
2019-02-17T21:47:44.662Z,3.40
2019-02-17T21:50:14.311Z,3.30
2019-02-17T21:52:42.751Z,3.30
2019-02-17T21:55:12.718Z,3.30
2019-02-17T21:57:41.242Z,3.30
2019-02-17T22:00:16.875Z,3.20
2019-02-17T22:02:45.276Z,3.10
2019-02-17T22:05:13.864Z,3.20
2019-02-17T22:07:42.991Z,3.20
2019-02-17T22:10:16.212Z,3.20
2019-02-17T22:12:45.022Z,3.10
2019-02-17T22:15:23.755Z,2.90
2019-02-17T22:17:52.192Z,2.70
2019-02-17T22:20:20.608Z,2.50
2019-02-17T22:22:49.330Z,2.40
2019-02-17T22:25:17.845Z,2.30
2019-02-17T22:27:46.253Z,2.20
2019-02-17T22:30:15.616Z,2.10
2019-02-17T22:32:44.026Z,2.10
2019-02-17T22:35:12.427Z,2.10
2019-02-17T22:37:40.858Z,2.00
2019-02-17T22:40:14.579Z,2.00
2019-02-17T22:42:43.244Z,2.00
2019-02-17T22:45:12.638Z,2.00
2019-02-17T22:47:41.333Z,2.00
2019-02-17T22:50:11.900Z,1.90
2019-02-17T22:52:40.303Z,1.90
2019-02-17T22:55:11.091Z,1.80
2019-02-17T22:57:39.743Z,1.70
2019-02-17T23:00:23.164Z,1.60
2019-02-17T23:02:51.564Z,1.60
2019-02-17T23:05:20.002Z,1.40
2019-02-17T23:07:48.446Z,1.30
2019-02-17T23:10:16.863Z,1.20
2019-02-17T23:12:45.330Z,1.20
2019-02-17T23:15:13.745Z,1.20
2019-02-17T23:17:42.189Z,1.10
2019-02-17T23:20:12.162Z,1.00
2019-02-17T23:22:40.610Z,0.90
2019-02-17T23:25:10.079Z,0.80
2019-02-17T23:27:38.705Z,0.70
2019-02-17T23:30:09.730Z,0.70
2019-02-17T23:32:38.156Z,0.70
2019-02-17T23:35:06.736Z,0.70
2019-02-17T23:37:35.170Z,0.70
2019-02-17T23:40:05.156Z,0.60
2019-02-17T23:42:33.594Z,0.60
2019-02-17T23:45:02.067Z,0.50
2019-02-17T23:47:30.842Z,0.40
2019-02-17T23:49:59.270Z,0.50
2019-02-17T23:52:27.698Z,0.50
2019-02-17T23:54:56.121Z,0.50
2019-02-17T23:57:24.678Z,0.50
2019-02-17T23:59:56.342Z,0.50
